Terminal Aerodrome Forecast
Issued by NWS

Home | Current Version | Previous Version | Text Only | Print | Product List | Glossary On
Versions: 1 2 3 4 5 6 7 8 9 10 11 12 13 14 15 16 17 18
292
FTUS41 KBTV 180538
TAFRUT
TAF
KRUT 180538Z 1806/1906 13010KT P6SM BKN050
     FM181200 13010KT P6SM VCSH OVC050
      TEMPO 1813/1817 4SM -SHRA BR BKN030
     FM181800 15007KT P6SM BKN030
     FM190000 18006KT P6SM VCSH BKN030=

USA.gov is the U.S. government's official web portal to all federal, state and local government web resources and services.